sensor_id;sensor_type;location;lat;lon;timestamp;pressure;altitude;pressure_sealevel;temperature;humidity
82619;BME280;72286;12.138;-68.936;2023-08-31T00:00:49;100971.38;;;29.89;68.05
82619;BME280;72286;12.138;-68.936;2023-08-31T00:04:27;100974.85;;;29.83;68.50
82619;BME280;72286;12.138;-68.936;2023-08-31T00:08:05;100976.13;;;29.94;68.24
82619;BME280;72286;12.138;-68.936;2023-08-31T00:11:43;100981.75;;;30.00;68.21
82619;BME280;72286;12.138;-68.936;2023-08-31T00:15:20;100979.46;;;29.96;69.11
82619;BME280;72286;12.138;-68.936;2023-08-31T00:18:58;100987.17;;;29.95;69.00
82619;BME280;72286;12.138;-68.936;2023-08-31T00:22:35;100989.50;;;29.86;68.95
82619;BME280;72286;12.138;-68.936;2023-08-31T00:26:13;101003.62;;;29.76;69.16
82619;BME280;72286;12.138;-68.936;2023-08-31T00:29:51;101008.25;;;29.82;68.74
82619;BME280;72286;12.138;-68.936;2023-08-31T00:33:48;101019.08;;;29.91;68.21
82619;BME280;72286;12.138;-68.936;2023-08-31T00:37:06;101027.27;;;29.86;68.01
82619;BME280;72286;12.138;-68.936;2023-08-31T00:40:44;101048.50;;;29.76;68.39
82619;BME280;72286;12.138;-68.936;2023-08-31T00:44:21;101055.95;;;29.82;68.15
82619;BME280;72286;12.138;-68.936;2023-08-31T00:48:00;101063.23;;;29.82;68.33
82619;BME280;72286;12.138;-68.936;2023-08-31T00:51:37;101069.94;;;29.81;68.67
82619;BME280;72286;12.138;-68.936;2023-08-31T00:55:15;101070.39;;;29.69;69.49
82619;BME280;72286;12.138;-68.936;2023-08-31T00:58:53;101076.20;;;29.72;69.29
82619;BME280;72286;12.138;-68.936;2023-08-31T01:06:54;101096.80;;;29.66;69.71
82619;BME280;72286;12.138;-68.936;2023-08-31T01:10:58;101103.41;;;29.55;70.18
82619;BME280;72286;12.138;-68.936;2023-08-31T01:15:05;101111.70;;;29.59;70.19
82619;BME280;72286;12.138;-68.936;2023-08-31T01:18:46;101115.79;;;29.69;69.78
82619;BME280;72286;12.138;-68.936;2023-08-31T01:26:10;101114.27;;;29.49;70.25
82619;BME280;72286;12.138;-68.936;2023-08-31T01:29:46;101117.25;;;29.58;69.84
82619;BME280;72286;12.138;-68.936;2023-08-31T01:33:25;101128.39;;;29.63;69.55
82619;BME280;72286;12.138;-68.936;2023-08-31T01:37:08;101130.07;;;29.59;69.87
82619;BME280;72286;12.138;-68.936;2023-08-31T01:41:11;101133.01;;;29.53;69.86
82619;BME280;72286;12.138;-68.936;2023-08-31T01:44:50;101136.56;;;29.54;70.19
82619;BME280;72286;12.138;-68.936;2023-08-31T01:48:28;101135.24;;;29.63;70.34
82619;BME280;72286;12.138;-68.936;2023-08-31T01:52:24;101136.95;;;29.68;70.27
82619;BME280;72286;12.138;-68.936;2023-08-31T01:55:43;101147.37;;;29.57;70.40
82619;BME280;72286;12.138;-68.936;2023-08-31T01:59:20;101151.95;;;29.56;70.73
82619;BME280;72286;12.138;-68.936;2023-08-31T02:02:59;101152.07;;;29.55;70.85
82619;BME280;72286;12.138;-68.936;2023-08-31T02:06:35;101158.38;;;29.60;71.14
82619;BME280;72286;12.138;-68.936;2023-08-31T02:10:14;101160.81;;;29.63;70.80
82619;BME280;72286;12.138;-68.936;2023-08-31T02:13:51;101164.41;;;29.52;71.20
82619;BME280;72286;12.138;-68.936;2023-08-31T02:17:29;101167.36;;;29.53;71.44
82619;BME280;72286;12.138;-68.936;2023-08-31T02:21:06;101171.02;;;29.54;71.30
82619;BME280;72286;12.138;-68.936;2023-08-31T02:25:04;101173.35;;;29.52;71.29
82619;BME280;72286;12.138;-68.936;2023-08-31T02:28:22;101179.99;;;29.49;71.73
82619;BME280;72286;12.138;-68.936;2023-08-31T02:32:00;101183.35;;;29.47;71.93
82619;BME280;72286;12.138;-68.936;2023-08-31T02:35:40;101186.23;;;29.46;71.95
82619;BME280;72286;12.138;-68.936;2023-08-31T02:39:18;101190.93;;;29.45;71.82
82619;BME280;72286;12.138;-68.936;2023-08-31T02:42:55;101198.30;;;29.45;71.74
82619;BME280;72286;12.138;-68.936;2023-08-31T02:46:33;101201.34;;;29.38;72.16
82619;BME280;72286;12.138;-68.936;2023-08-31T02:50:10;101203.69;;;29.38;72.28
82619;BME280;72286;12.138;-68.936;2023-08-31T02:53:49;101205.95;;;29.41;71.91
82619;BME280;72286;12.138;-68.936;2023-08-31T02:57:26;101214.89;;;29.45;71.54
82619;BME280;72286;12.138;-68.936;2023-08-31T03:01:12;101231.04;;;29.40;72.12
82619;BME280;72286;12.138;-68.936;2023-08-31T03:04:49;101236.02;;;29.37;72.47
82619;BME280;72286;12.138;-68.936;2023-08-31T03:08:27;101233.52;;;29.35;72.71
82619;BME280;72286;12.138;-68.936;2023-08-31T03:12:04;101238.66;;;29.39;72.71
82619;BME280;72286;12.138;-68.936;2023-08-31T03:15:42;101236.88;;;29.35;72.36
82619;BME280;72286;12.138;-68.936;2023-08-31T03:19:19;101233.69;;;29.44;71.97
82619;BME280;72286;12.138;-68.936;2023-08-31T03:22:58;101238.45;;;29.51;71.79
82619;BME280;72286;12.138;-68.936;2023-08-31T03:26:35;101231.44;;;29.41;71.76
82619;BME280;72286;12.138;-68.936;2023-08-31T03:30:13;101233.94;;;29.40;71.64
82619;BME280;72286;12.138;-68.936;2023-08-31T03:33:50;101224.29;;;29.37;71.96
82619;BME280;72286;12.138;-68.936;2023-08-31T03:37:29;101218.08;;;29.31;72.06
82619;BME280;72286;12.138;-68.936;2023-08-31T03:41:06;101207.98;;;29.33;72.31
82619;BME280;72286;12.138;-68.936;2023-08-31T03:44:44;101200.14;;;29.36;72.41
82619;BME280;72286;12.138;-68.936;2023-08-31T03:48:21;101193.83;;;29.38;72.50
82619;BME280;72286;12.138;-68.936;2023-08-31T03:51:59;101188.15;;;29.33;72.49
82619;BME280;72286;12.138;-68.936;2023-08-31T03:55:36;101195.83;;;29.34;72.51
82619;BME280;72286;12.138;-68.936;2023-08-31T03:59:14;101197.14;;;29.39;72.38
82619;BME280;72286;12.138;-68.936;2023-08-31T04:02:52;101195.55;;;29.33;72.79
82619;BME280;72286;12.138;-68.936;2023-08-31T04:06:30;101188.84;;;29.32;72.92
82619;BME280;72286;12.138;-68.936;2023-08-31T04:10:08;101191.55;;;29.41;72.59
82619;BME280;72286;12.138;-68.936;2023-08-31T04:13:45;101193.34;;;29.39;72.98
82619;BME280;72286;12.138;-68.936;2023-08-31T04:17:23;101187.52;;;29.34;73.11
82619;BME280;72286;12.138;-68.936;2023-08-31T04:21:01;101182.00;;;29.35;73.23
82619;BME280;72286;12.138;-68.936;2023-08-31T04:24:39;101181.67;;;29.39;73.31
82619;BME280;72286;12.138;-68.936;2023-08-31T04:28:17;101180.38;;;29.33;73.30
82619;BME280;72286;12.138;-68.936;2023-08-31T04:31:55;101175.27;;;29.34;73.29
82619;BME280;72286;12.138;-68.936;2023-08-31T04:35:33;101177.33;;;29.32;73.04
82619;BME280;72286;12.138;-68.936;2023-08-31T04:39:09;101176.30;;;29.25;73.21
82619;BME280;72286;12.138;-68.936;2023-08-31T04:42:48;101173.92;;;29.24;73.37
82619;BME280;72286;12.138;-68.936;2023-08-31T04:46:25;101172.50;;;29.28;73.37
82619;BME280;72286;12.138;-68.936;2023-08-31T04:50:03;101175.11;;;29.27;73.55
82619;BME280;72286;12.138;-68.936;2023-08-31T04:53:42;101167.05;;;29.26;73.53
82619;BME280;72286;12.138;-68.936;2023-08-31T04:57:20;101165.52;;;29.35;73.27
82619;BME280;72286;12.138;-68.936;2023-08-31T05:00:57;101155.41;;;29.33;73.14
82619;BME280;72286;12.138;-68.936;2023-08-31T05:04:35;101158.36;;;29.27;73.40
82619;BME280;72286;12.138;-68.936;2023-08-31T05:08:12;101144.28;;;29.31;73.12
82619;BME280;72286;12.138;-68.936;2023-08-31T05:11:51;101147.09;;;29.30;73.17
82619;BME280;72286;12.138;-68.936;2023-08-31T05:15:28;101150.36;;;29.24;73.28
82619;BME280;72286;12.138;-68.936;2023-08-31T05:19:06;101147.44;;;29.28;73.10
82619;BME280;72286;12.138;-68.936;2023-08-31T05:22:43;101139.59;;;29.33;72.81
82619;BME280;72286;12.138;-68.936;2023-08-31T05:26:22;101135.22;;;29.24;72.90
82619;BME280;72286;12.138;-68.936;2023-08-31T05:29:59;101135.89;;;29.23;72.90
82619;BME280;72286;12.138;-68.936;2023-08-31T05:33:37;101139.09;;;29.22;72.92
82619;BME280;72286;12.138;-68.936;2023-08-31T05:37:14;101136.13;;;29.19;73.07
82619;BME280;72286;12.138;-68.936;2023-08-31T05:40:52;101138.26;;;29.15;73.37
82619;BME280;72286;12.138;-68.936;2023-08-31T05:44:29;101135.87;;;29.18;73.30
82619;BME280;72286;12.138;-68.936;2023-08-31T05:48:08;101135.02;;;29.19;73.46
82619;BME280;72286;12.138;-68.936;2023-08-31T05:51:45;101133.09;;;29.17;73.41
82619;BME280;72286;12.138;-68.936;2023-08-31T05:55:23;101132.40;;;29.18;73.44
82619;BME280;72286;12.138;-68.936;2023-08-31T05:59:00;101122.09;;;29.17;73.68
82619;BME280;72286;12.138;-68.936;2023-08-31T06:02:39;101123.80;;;29.16;73.54
82619;BME280;72286;12.138;-68.936;2023-08-31T06:06:16;101116.84;;;29.23;73.41
82619;BME280;72286;12.138;-68.936;2023-08-31T06:09:54;101110.02;;;29.25;73.38
82619;BME280;72286;12.138;-68.936;2023-08-31T06:13:31;101095.55;;;29.20;73.79
82619;BME280;72286;12.138;-68.936;2023-08-31T06:17:09;101092.09;;;29.18;73.89
82619;BME280;72286;12.138;-68.936;2023-08-31T06:20:49;101083.61;;;29.20;73.70
82619;BME280;72286;12.138;-68.936;2023-08-31T06:24:26;101079.22;;;29.17;73.76
82619;BME280;72286;12.138;-68.936;2023-08-31T06:28:03;101077.20;;;29.20;73.99
82619;BME280;72286;12.138;-68.936;2023-08-31T06:31:43;101074.61;;;29.19;73.71
82619;BME280;72286;12.138;-68.936;2023-08-31T06:35:20;101069.54;;;29.15;74.27
82619;BME280;72286;12.138;-68.936;2023-08-31T06:38:58;101064.68;;;29.12;74.16
82619;BME280;72286;12.138;-68.936;2023-08-31T06:42:36;101061.61;;;29.16;73.91
82619;BME280;72286;12.138;-68.936;2023-08-31T06:46:14;101062.64;;;29.11;74.18
82619;BME280;72286;12.138;-68.936;2023-08-31T06:49:51;101065.73;;;29.08;74.43
82619;BME280;72286;12.138;-68.936;2023-08-31T06:53:30;101059.12;;;29.08;74.22
82619;BME280;72286;12.138;-68.936;2023-08-31T06:57:07;101056.17;;;29.05;74.32
82619;BME280;72286;12.138;-68.936;2023-08-31T07:00:46;101049.98;;;29.04;74.20
82619;BME280;72286;12.138;-68.936;2023-08-31T07:04:23;101041.01;;;29.09;74.16
82619;BME280;72286;12.138;-68.936;2023-08-31T07:08:01;101031.91;;;29.08;74.40
82619;BME280;72286;12.138;-68.936;2023-08-31T07:11:38;101033.14;;;29.07;74.53
82619;BME280;72286;12.138;-68.936;2023-08-31T07:15:17;101030.30;;;29.08;74.06
82619;BME280;72286;12.138;-68.936;2023-08-31T07:18:54;101027.04;;;29.09;73.51
82619;BME280;72286;12.138;-68.936;2023-08-31T07:22:35;101024.96;;;29.06;73.77
82619;BME280;72286;12.138;-68.936;2023-08-31T07:26:12;101025.77;;;29.07;73.93
82619;BME280;72286;12.138;-68.936;2023-08-31T07:29:50;101017.66;;;29.07;74.06
82619;BME280;72286;12.138;-68.936;2023-08-31T07:33:27;101009.20;;;29.04;74.18
82619;BME280;72286;12.138;-68.936;2023-08-31T07:37:06;101007.27;;;29.03;74.16
82619;BME280;72286;12.138;-68.936;2023-08-31T07:41:02;101008.48;;;29.00;74.12
82619;BME280;72286;12.138;-68.936;2023-08-31T07:44:21;101009.11;;;28.97;74.22
82619;BME280;72286;12.138;-68.936;2023-08-31T07:47:58;101007.91;;;29.02;74.36
82619;BME280;72286;12.138;-68.936;2023-08-31T07:51:36;101007.13;;;29.03;74.41
82619;BME280;72286;12.138;-68.936;2023-08-31T07:55:13;101002.55;;;28.98;74.47
82619;BME280;72286;12.138;-68.936;2023-08-31T07:58:52;100999.73;;;29.03;74.59
82619;BME280;72286;12.138;-68.936;2023-08-31T08:02:29;101009.00;;;29.02;74.54
82619;BME280;72286;12.138;-68.936;2023-08-31T08:06:07;101012.66;;;28.98;74.58
82619;BME280;72286;12.138;-68.936;2023-08-31T08:09:44;101019.66;;;29.00;74.41
82619;BME280;72286;12.138;-68.936;2023-08-31T08:13:22;101013.23;;;28.99;74.66
82619;BME280;72286;12.138;-68.936;2023-08-31T08:16:59;101017.04;;;28.93;74.74
82619;BME280;72286;12.138;-68.936;2023-08-31T08:20:38;101021.92;;;28.93;74.70
82619;BME280;72286;12.138;-68.936;2023-08-31T08:24:15;101019.83;;;28.92;74.55
82619;BME280;72286;12.138;-68.936;2023-08-31T08:27:53;101019.95;;;28.89;75.07
82619;BME280;72286;12.138;-68.936;2023-08-31T08:31:30;101022.52;;;28.93;74.96
82619;BME280;72286;12.138;-68.936;2023-08-31T08:35:08;101026.59;;;28.93;74.75
82619;BME280;72286;12.138;-68.936;2023-08-31T08:38:46;101022.02;;;28.85;75.18
82619;BME280;72286;12.138;-68.936;2023-08-31T08:42:25;101020.05;;;28.86;75.11
82619;BME280;72286;12.138;-68.936;2023-08-31T08:46:08;101020.04;;;28.88;74.85
82619;BME280;72286;12.138;-68.936;2023-08-31T08:49:47;101018.69;;;28.84;75.04
82619;BME280;72286;12.138;-68.936;2023-08-31T08:53:24;101010.75;;;28.84;75.08
82619;BME280;72286;12.138;-68.936;2023-08-31T08:57:02;101009.19;;;28.91;74.94
82619;BME280;72286;12.138;-68.936;2023-08-31T09:00:39;101013.60;;;28.83;75.50
82619;BME280;72286;12.138;-68.936;2023-08-31T09:04:37;101012.04;;;28.87;75.11
82619;BME280;72286;12.138;-68.936;2023-08-31T09:08:08;101012.42;;;28.91;74.94
82619;BME280;72286;12.138;-68.936;2023-08-31T09:11:47;101013.16;;;28.85;74.86
82619;BME280;72286;12.138;-68.936;2023-08-31T09:15:23;101012.22;;;28.86;75.07
82619;BME280;72286;12.138;-68.936;2023-08-31T09:19:21;101013.04;;;28.86;74.88
82619;BME280;72286;12.138;-68.936;2023-08-31T09:22:58;101014.61;;;28.81;75.11
82619;BME280;72286;12.138;-68.936;2023-08-31T09:26:40;101019.16;;;28.81;75.35
82619;BME280;72286;12.138;-68.936;2023-08-31T09:30:19;101019.13;;;28.81;74.95
82619;BME280;72286;12.138;-68.936;2023-08-31T09:33:57;101021.46;;;28.81;75.02
82619;BME280;72286;12.138;-68.936;2023-08-31T09:37:34;101022.19;;;28.81;75.19
82619;BME280;72286;12.138;-68.936;2023-08-31T09:41:13;101019.02;;;28.84;75.00
82619;BME280;72286;12.138;-68.936;2023-08-31T09:44:51;101025.51;;;28.82;75.26
82619;BME280;72286;12.138;-68.936;2023-08-31T09:48:30;101031.17;;;28.77;75.41
82619;BME280;72286;12.138;-68.936;2023-08-31T09:52:07;101032.80;;;28.83;75.27
82619;BME280;72286;12.138;-68.936;2023-08-31T09:55:47;101038.52;;;28.81;75.29
82619;BME280;72286;12.138;-68.936;2023-08-31T09:59:24;101043.14;;;28.80;75.05
82619;BME280;72286;12.138;-68.936;2023-08-31T10:03:04;101045.09;;;28.86;75.25
82619;BME280;72286;12.138;-68.936;2023-08-31T10:06:42;101046.66;;;28.81;75.47
82619;BME280;72286;12.138;-68.936;2023-08-31T10:10:20;101052.43;;;28.79;75.44
82619;BME280;72286;12.138;-68.936;2023-08-31T10:13:59;101048.73;;;28.80;75.42
82619;BME280;72286;12.138;-68.936;2023-08-31T10:17:38;101047.09;;;28.78;75.67
82619;BME280;72286;12.138;-68.936;2023-08-31T10:21:19;101041.42;;;28.75;75.90
82619;BME280;72286;12.138;-68.936;2023-08-31T10:24:57;101039.92;;;28.80;75.86
82619;BME280;72286;12.138;-68.936;2023-08-31T10:28:41;101041.66;;;28.78;75.53
82619;BME280;72286;12.138;-68.936;2023-08-31T10:32:19;101044.52;;;28.73;75.89
82619;BME280;72286;12.138;-68.936;2023-08-31T10:35:57;101058.10;;;28.78;75.88
82619;BME280;72286;12.138;-68.936;2023-08-31T10:39:38;101060.10;;;28.81;75.75
82619;BME280;72286;12.138;-68.936;2023-08-31T10:43:16;101068.85;;;28.80;75.85
82619;BME280;72286;12.138;-68.936;2023-08-31T10:46:54;101074.94;;;28.90;75.59
82619;BME280;72286;12.138;-68.936;2023-08-31T10:50:41;101080.02;;;28.87;75.64
82619;BME280;72286;12.138;-68.936;2023-08-31T10:58:09;101092.83;;;28.96;75.34
82619;BME280;72286;12.138;-68.936;2023-08-31T11:01:56;101098.65;;;28.97;75.18
82619;BME280;72286;12.138;-68.936;2023-08-31T11:05:33;101100.43;;;28.97;75.30
82619;BME280;72286;12.138;-68.936;2023-08-31T11:09:21;101103.11;;;29.09;75.02
82619;BME280;72286;12.138;-68.936;2023-08-31T11:12:58;101100.96;;;29.10;75.12
82619;BME280;72286;12.138;-68.936;2023-08-31T11:16:38;101106.18;;;29.18;75.10
82619;BME280;72286;12.138;-68.936;2023-08-31T11:20:16;101107.63;;;29.41;74.57
82619;BME280;72286;12.138;-68.936;2023-08-31T11:23:53;101108.12;;;29.70;73.60
82619;BME280;72286;12.138;-68.936;2023-08-31T11:27:33;101107.66;;;29.91;72.69
82619;BME280;72286;12.138;-68.936;2023-08-31T11:31:11;101118.63;;;30.23;71.62
82619;BME280;72286;12.138;-68.936;2023-08-31T11:34:48;101128.51;;;30.46;70.61
82619;BME280;72286;12.138;-68.936;2023-08-31T11:38:27;101133.58;;;30.58;70.02
82619;BME280;72286;12.138;-68.936;2023-08-31T11:42:05;101142.40;;;30.69;69.49
82619;BME280;72286;12.138;-68.936;2023-08-31T11:45:43;101145.15;;;30.79;68.86
82619;BME280;72286;12.138;-68.936;2023-08-31T11:49:21;101148.16;;;30.96;68.25
82619;BME280;72286;12.138;-68.936;2023-08-31T11:52:58;101150.49;;;31.01;68.12
82619;BME280;72286;12.138;-68.936;2023-08-31T11:56:46;101149.10;;;31.24;67.43
82619;BME280;72286;12.138;-68.936;2023-08-31T12:00:24;101155.55;;;31.18;67.05
82619;BME280;72286;12.138;-68.936;2023-08-31T12:04:02;101157.98;;;30.91;67.85
82619;BME280;72286;12.138;-68.936;2023-08-31T12:07:46;101166.34;;;30.62;68.04
82619;BME280;72286;12.138;-68.936;2023-08-31T12:11:23;101169.41;;;30.64;68.89
82619;BME280;72286;12.138;-68.936;2023-08-31T12:15:02;101164.97;;;30.67;68.91
82619;BME280;72286;12.138;-68.936;2023-08-31T12:18:41;101169.77;;;30.95;68.21
82619;BME280;72286;12.138;-68.936;2023-08-31T12:22:19;101175.79;;;31.16;67.54
82619;BME280;72286;12.138;-68.936;2023-08-31T12:25:56;101180.44;;;31.27;66.70
82619;BME280;72286;12.138;-68.936;2023-08-31T12:29:35;101178.76;;;31.19;67.28
82619;BME280;72286;12.138;-68.936;2023-08-31T12:33:12;101190.27;;;31.14;67.28
82619;BME280;72286;12.138;-68.936;2023-08-31T12:36:50;101194.33;;;31.08;66.40
82619;BME280;72286;12.138;-68.936;2023-08-31T12:40:28;101202.27;;;31.05;66.72
82619;BME280;72286;12.138;-68.936;2023-08-31T12:44:07;101197.36;;;31.17;66.80
82619;BME280;72286;12.138;-68.936;2023-08-31T12:47:44;101191.73;;;31.24;66.84
82619;BME280;72286;12.138;-68.936;2023-08-31T12:51:22;101202.85;;;31.38;65.87
82619;BME280;72286;12.138;-68.936;2023-08-31T12:54:59;101199.77;;;31.49;66.10
82619;BME280;72286;12.138;-68.936;2023-08-31T12:58:37;101203.44;;;31.72;64.53
82619;BME280;72286;12.138;-68.936;2023-08-31T13:02:14;101204.98;;;31.88;63.36
82619;BME280;72286;12.138;-68.936;2023-08-31T13:05:53;101211.59;;;31.99;62.18
82619;BME280;72286;12.138;-68.936;2023-08-31T13:09:30;101209.27;;;32.11;61.80
82619;BME280;72286;12.138;-68.936;2023-08-31T13:13:08;101210.50;;;32.28;61.29
82619;BME280;72286;12.138;-68.936;2023-08-31T13:17:05;101212.16;;;32.27;62.06
82619;BME280;72286;12.138;-68.936;2023-08-31T13:20:24;101204.34;;;32.39;61.32
82619;BME280;72286;12.138;-68.936;2023-08-31T13:24:00;101213.17;;;32.56;61.29
82619;BME280;72286;12.138;-68.936;2023-08-31T13:27:39;101208.27;;;32.48;61.02
82619;BME280;72286;12.138;-68.936;2023-08-31T13:31:17;101208.55;;;32.59;60.17
82619;BME280;72286;12.138;-68.936;2023-08-31T13:34:54;101210.59;;;32.76;59.07
82619;BME280;72286;12.138;-68.936;2023-08-31T13:38:31;101209.20;;;32.96;58.92
82619;BME280;72286;12.138;-68.936;2023-08-31T13:42:10;101218.52;;;32.98;58.38
82619;BME280;72286;12.138;-68.936;2023-08-31T13:45:47;101214.56;;;32.89;58.41
82619;BME280;72286;12.138;-68.936;2023-08-31T13:49:25;101214.38;;;32.99;58.20
82619;BME280;72286;12.138;-68.936;2023-08-31T13:53:02;101212.17;;;33.02;58.33
82619;BME280;72286;12.138;-68.936;2023-08-31T13:56:40;101210.60;;;33.00;58.83
82619;BME280;72286;12.138;-68.936;2023-08-31T14:00:19;101195.38;;;32.99;59.20
82619;BME280;72286;12.138;-68.936;2023-08-31T14:03:57;101212.66;;;33.05;58.67
82619;BME280;72286;12.138;-68.936;2023-08-31T14:07:34;101209.83;;;32.99;58.62
82619;BME280;72286;12.138;-68.936;2023-08-31T14:11:14;101212.81;;;32.97;58.93
82619;BME280;72286;12.138;-68.936;2023-08-31T14:14:50;101210.17;;;32.99;58.98
82619;BME280;72286;12.138;-68.936;2023-08-31T14:18:29;101210.77;;;33.00;58.69
82619;BME280;72286;12.138;-68.936;2023-08-31T14:22:06;101209.56;;;33.19;57.86
82619;BME280;72286;12.138;-68.936;2023-08-31T14:25:44;101212.13;;;33.31;57.46
82619;BME280;72286;12.138;-68.936;2023-08-31T14:29:21;101207.24;;;33.44;57.11
82619;BME280;72286;12.138;-68.936;2023-08-31T14:32:59;101208.97;;;33.52;57.23
82619;BME280;72286;12.138;-68.936;2023-08-31T14:36:36;101215.65;;;33.49;56.93
82619;BME280;72286;12.138;-68.936;2023-08-31T14:40:15;101213.74;;;33.36;57.28
82619;BME280;72286;12.138;-68.936;2023-08-31T14:43:53;101212.21;;;33.39;57.52
82619;BME280;72286;12.138;-68.936;2023-08-31T14:47:32;101214.98;;;33.46;56.57
82619;BME280;72286;12.138;-68.936;2023-08-31T14:51:10;101217.58;;;33.41;56.27
82619;BME280;72286;12.138;-68.936;2023-08-31T14:54:51;101227.45;;;33.49;56.71
82619;BME280;72286;12.138;-68.936;2023-08-31T14:58:29;101226.56;;;33.52;56.80
82619;BME280;72286;12.138;-68.936;2023-08-31T15:02:27;101225.04;;;33.59;56.89
82619;BME280;72286;12.138;-68.936;2023-08-31T15:05:47;101226.56;;;33.65;56.77
82619;BME280;72286;12.138;-68.936;2023-08-31T15:09:25;101231.80;;;33.62;56.44
82619;BME280;72286;12.138;-68.936;2023-08-31T15:13:02;101233.05;;;33.60;56.19
82619;BME280;72286;12.138;-68.936;2023-08-31T15:16:40;101234.20;;;33.51;56.23
82619;BME280;72286;12.138;-68.936;2023-08-31T15:20:17;101231.39;;;33.57;56.16
82619;BME280;72286;12.138;-68.936;2023-08-31T15:23:55;101237.73;;;33.62;55.73
82619;BME280;72286;12.138;-68.936;2023-08-31T15:27:32;101230.77;;;33.67;55.51
82619;BME280;72286;12.138;-68.936;2023-08-31T15:31:14;101231.15;;;33.62;55.98
82619;BME280;72286;12.138;-68.936;2023-08-31T15:34:51;101234.06;;;33.57;56.49
82619;BME280;72286;12.138;-68.936;2023-08-31T15:38:30;101232.95;;;33.64;56.40
82619;BME280;72286;12.138;-68.936;2023-08-31T15:42:07;101222.23;;;33.75;56.08
82619;BME280;72286;12.138;-68.936;2023-08-31T15:45:45;101221.40;;;33.82;56.54
82619;BME280;72286;12.138;-68.936;2023-08-31T15:49:25;101216.30;;;33.93;55.51
82619;BME280;72286;12.138;-68.936;2023-08-31T15:53:03;101211.58;;;34.03;55.32
82619;BME280;72286;12.138;-68.936;2023-08-31T15:56:40;101211.29;;;34.09;56.38
82619;BME280;72286;12.138;-68.936;2023-08-31T16:00:19;101210.70;;;34.35;55.32
82619;BME280;72286;12.138;-68.936;2023-08-31T16:03:58;101203.55;;;34.46;54.63
82619;BME280;72286;12.138;-68.936;2023-08-31T16:07:36;101194.63;;;34.30;55.38
82619;BME280;72286;12.138;-68.936;2023-08-31T16:11:13;101198.96;;;34.32;54.12
82619;BME280;72286;12.138;-68.936;2023-08-31T16:15:11;101195.06;;;34.26;54.39
82619;BME280;72286;12.138;-68.936;2023-08-31T16:18:29;101187.95;;;34.16;55.03
82619;BME280;72286;12.138;-68.936;2023-08-31T16:22:07;101184.56;;;34.14;55.10
82619;BME280;72286;12.138;-68.936;2023-08-31T16:25:44;101175.14;;;34.08;55.02
82619;BME280;72286;12.138;-68.936;2023-08-31T16:29:23;101181.17;;;34.23;55.32
82619;BME280;72286;12.138;-68.936;2023-08-31T16:32:59;101175.94;;;34.26;55.27
82619;BME280;72286;12.138;-68.936;2023-08-31T16:36:38;101168.88;;;34.22;55.09
82619;BME280;72286;12.138;-68.936;2023-08-31T16:40:15;101172.42;;;34.20;55.54
82619;BME280;72286;12.138;-68.936;2023-08-31T16:43:53;101175.20;;;34.12;55.83
82619;BME280;72286;12.138;-68.936;2023-08-31T16:47:32;101170.44;;;34.01;56.68
82619;BME280;72286;12.138;-68.936;2023-08-31T16:51:10;101167.94;;;33.84;56.28
82619;BME280;72286;12.138;-68.936;2023-08-31T16:54:47;101148.71;;;33.75;56.93
82619;BME280;72286;12.138;-68.936;2023-08-31T16:58:25;101139.89;;;33.81;56.70
82619;BME280;72286;12.138;-68.936;2023-08-31T17:02:02;101134.73;;;33.84;56.12
82619;BME280;72286;12.138;-68.936;2023-08-31T17:05:40;101133.41;;;33.87;55.93
82619;BME280;72286;12.138;-68.936;2023-08-31T17:09:17;101126.95;;;33.92;56.50
82619;BME280;72286;12.138;-68.936;2023-08-31T17:12:56;101127.63;;;33.97;56.29
82619;BME280;72286;12.138;-68.936;2023-08-31T17:16:34;101124.20;;;33.96;55.74
82619;BME280;72286;12.138;-68.936;2023-08-31T17:20:12;101127.04;;;33.94;55.89
82619;BME280;72286;12.138;-68.936;2023-08-31T17:23:55;101119.20;;;33.95;56.09
82619;BME280;72286;12.138;-68.936;2023-08-31T17:27:33;101123.21;;;34.01;55.84
82619;BME280;72286;12.138;-68.936;2023-08-31T17:31:10;101109.86;;;33.82;56.74
82619;BME280;72286;12.138;-68.936;2023-08-31T17:34:48;101097.02;;;33.86;56.95
82619;BME280;72286;12.138;-68.936;2023-08-31T17:38:26;101095.34;;;33.91;56.41
82619;BME280;72286;12.138;-68.936;2023-08-31T17:42:04;101078.33;;;33.94;56.33
82619;BME280;72286;12.138;-68.936;2023-08-31T17:45:41;101082.29;;;34.11;55.97
82619;BME280;72286;12.138;-68.936;2023-08-31T17:49:19;101085.56;;;34.20;55.89
82619;BME280;72286;12.138;-68.936;2023-08-31T17:52:56;101079.92;;;33.96;55.37
82619;BME280;72286;12.138;-68.936;2023-08-31T17:56:35;101068.17;;;34.00;54.91
82619;BME280;72286;12.138;-68.936;2023-08-31T18:00:12;101068.08;;;34.07;55.08
82619;BME280;72286;12.138;-68.936;2023-08-31T18:03:50;101069.08;;;34.07;54.48
82619;BME280;72286;12.138;-68.936;2023-08-31T18:07:27;101069.50;;;34.12;54.41
82619;BME280;72286;12.138;-68.936;2023-08-31T18:11:06;101069.45;;;34.17;54.40
82619;BME280;72286;12.138;-68.936;2023-08-31T18:14:45;101068.31;;;34.22;54.40
82619;BME280;72286;12.138;-68.936;2023-08-31T18:18:24;101063.67;;;34.11;54.34
82619;BME280;72286;12.138;-68.936;2023-08-31T18:22:02;101055.54;;;34.04;54.11
82619;BME280;72286;12.138;-68.936;2023-08-31T18:25:48;101044.16;;;33.92;55.31
82619;BME280;72286;12.138;-68.936;2023-08-31T18:29:24;101038.54;;;33.90;55.63
82619;BME280;72286;12.138;-68.936;2023-08-31T18:33:02;101027.33;;;33.89;55.72
82619;BME280;72286;12.138;-68.936;2023-08-31T18:36:41;101020.33;;;34.00;55.45
82619;BME280;72286;12.138;-68.936;2023-08-31T18:40:18;101017.95;;;34.01;54.70
82619;BME280;72286;12.138;-68.936;2023-08-31T18:43:56;101019.25;;;33.90;55.20